8VA0 weather

Mcv Heliport
Richmond, Virginia, United States

Public forecast

Using degrees Fahrenheit for public forecast. Weather courtesy of forecast.io.

METAR (pilot weather report)

Closest report is Richmond International Airport, 5.9 nm (11.0 km) ESE. Retrieved 2019/03/21 03:29 UTC (11 minutes ago):

KRIC 210329Z 01004KT 3SM -DZ BR SCT004 OVC028 07/06 A3018

TAF (pilot weather forecast)

Forecast is more than 12 hours old.

Closest forecast is Richmond International Airport, 5.9 nm (11.0 km) ESE. Retrieved 2019/03/20 00:36 UTC (1 day ago):

TAF KRIC 202334Z 2100/2124 08006KT 6SM -RA OVC040 FM210200 06005KT 4SM -RA BR OVC015 FM210500 06005KT 3SM -RA BR OVC007 FM211200 10009KT 4SM -RA BR OVC007 FM211800 29005KT 6SM -RA OVC015